sensor_id;sensor_type;location;lat;lon;timestamp;P1;durP1;ratioP1;P2;durP2;ratioP2
22103;SDS011;11218;48.886;9.426;2023-03-04T00:02:05;74.88;;;31.52;;
22103;SDS011;11218;48.886;9.426;2023-03-04T00:04:33;73.05;;;30.90;;
22103;SDS011;11218;48.886;9.426;2023-03-04T00:07:02;72.05;;;30.10;;
22103;SDS011;11218;48.886;9.426;2023-03-04T00:09:31;74.85;;;31.85;;
22103;SDS011;11218;48.886;9.426;2023-03-04T00:11:59;74.25;;;31.63;;
22103;SDS011;11218;48.886;9.426;2023-03-04T00:14:27;67.30;;;29.80;;
22103;SDS011;11218;48.886;9.426;2023-03-04T00:16:55;69.78;;;30.23;;
22103;SDS011;11218;48.886;9.426;2023-03-04T00:19:24;68.28;;;29.58;;
22103;SDS011;11218;48.886;9.426;2023-03-04T00:21:51;71.18;;;29.17;;
22103;SDS011;11218;48.886;9.426;2023-03-04T00:24:20;68.50;;;29.15;;
22103;SDS011;11218;48.886;9.426;2023-03-04T00:26:51;68.47;;;29.42;;
22103;SDS011;11218;48.886;9.426;2023-03-04T00:29:19;73.70;;;29.13;;
22103;SDS011;11218;48.886;9.426;2023-03-04T00:31:48;70.25;;;29.20;;
22103;SDS011;11218;48.886;9.426;2023-03-04T00:34:16;62.42;;;26.63;;
22103;SDS011;11218;48.886;9.426;2023-03-04T00:36:45;71.53;;;29.88;;
22103;SDS011;11218;48.886;9.426;2023-03-04T00:39:13;80.13;;;30.42;;
22103;SDS011;11218;48.886;9.426;2023-03-04T00:41:41;69.13;;;28.08;;
22103;SDS011;11218;48.886;9.426;2023-03-04T00:44:11;73.70;;;31.00;;
22103;SDS011;11218;48.886;9.426;2023-03-04T00:46:39;68.00;;;29.30;;
22103;SDS011;11218;48.886;9.426;2023-03-04T00:49:07;66.40;;;28.80;;
22103;SDS011;11218;48.886;9.426;2023-03-04T00:51:35;77.25;;;30.52;;
22103;SDS011;11218;48.886;9.426;2023-03-04T00:54:03;66.53;;;28.08;;
22103;SDS011;11218;48.886;9.426;2023-03-04T00:56:31;71.85;;;30.75;;
22103;SDS011;11218;48.886;9.426;2023-03-04T00:58:59;74.15;;;30.25;;
22103;SDS011;11218;48.886;9.426;2023-03-04T01:01:29;70.85;;;27.83;;
22103;SDS011;11218;48.886;9.426;2023-03-04T01:03:57;61.42;;;27.20;;
22103;SDS011;11218;48.886;9.426;2023-03-04T01:06:25;60.35;;;25.73;;
22103;SDS011;11218;48.886;9.426;2023-03-04T01:08:53;70.72;;;29.02;;
22103;SDS011;11218;48.886;9.426;2023-03-04T01:11:22;75.20;;;28.90;;
22103;SDS011;11218;48.886;9.426;2023-03-04T01:13:50;66.35;;;29.38;;
22103;SDS011;11218;48.886;9.426;2023-03-04T01:16:18;73.18;;;28.98;;
22103;SDS011;11218;48.886;9.426;2023-03-04T01:18:47;71.22;;;29.40;;
22103;SDS011;11218;48.886;9.426;2023-03-04T01:21:15;69.28;;;27.35;;
22103;SDS011;11218;48.886;9.426;2023-03-04T01:23:44;72.78;;;30.23;;
22103;SDS011;11218;48.886;9.426;2023-03-04T01:26:12;67.72;;;29.75;;
22103;SDS011;11218;48.886;9.426;2023-03-04T01:28:40;68.72;;;29.83;;
22103;SDS011;11218;48.886;9.426;2023-03-04T01:31:08;68.35;;;28.33;;
22103;SDS011;11218;48.886;9.426;2023-03-04T01:33:36;69.05;;;29.30;;
22103;SDS011;11218;48.886;9.426;2023-03-04T01:36:06;72.45;;;28.98;;
22103;SDS011;11218;48.886;9.426;2023-03-04T01:38:34;67.82;;;28.00;;
22103;SDS011;11218;48.886;9.426;2023-03-04T01:41:03;69.13;;;28.48;;
22103;SDS011;11218;48.886;9.426;2023-03-04T01:43:31;77.53;;;30.42;;
22103;SDS011;11218;48.886;9.426;2023-03-04T01:46:02;71.35;;;28.67;;
22103;SDS011;11218;48.886;9.426;2023-03-04T01:48:31;68.68;;;27.73;;
22103;SDS011;11218;48.886;9.426;2023-03-04T01:51:02;78.07;;;29.48;;
22103;SDS011;11218;48.886;9.426;2023-03-04T01:53:33;64.07;;;27.35;;
22103;SDS011;11218;48.886;9.426;2023-03-04T01:56:01;67.40;;;27.30;;
22103;SDS011;11218;48.886;9.426;2023-03-04T01:58:38;67.43;;;27.70;;
22103;SDS011;11218;48.886;9.426;2023-03-04T02:01:06;76.35;;;28.95;;
22103;SDS011;11218;48.886;9.426;2023-03-04T02:03:34;62.08;;;26.35;;
22103;SDS011;11218;48.886;9.426;2023-03-04T02:06:02;61.78;;;26.80;;
22103;SDS011;11218;48.886;9.426;2023-03-04T02:08:30;66.80;;;27.65;;
22103;SDS011;11218;48.886;9.426;2023-03-04T02:11:01;70.72;;;27.70;;
22103;SDS011;11218;48.886;9.426;2023-03-04T02:13:29;66.22;;;28.30;;
22103;SDS011;11218;48.886;9.426;2023-03-04T02:15:59;73.97;;;27.90;;
22103;SDS011;11218;48.886;9.426;2023-03-04T02:18:27;66.38;;;27.45;;
22103;SDS011;11218;48.886;9.426;2023-03-04T02:20:59;66.30;;;27.17;;
22103;SDS011;11218;48.886;9.426;2023-03-04T02:23:39;64.85;;;28.80;;
22103;SDS011;11218;48.886;9.426;2023-03-04T02:26:15;73.50;;;28.10;;
22103;SDS011;11218;48.886;9.426;2023-03-04T02:28:45;62.88;;;27.58;;
22103;SDS011;11218;48.886;9.426;2023-03-04T02:31:23;65.72;;;27.52;;
22103;SDS011;11218;48.886;9.426;2023-03-04T02:33:53;72.78;;;27.33;;
22103;SDS011;11218;48.886;9.426;2023-03-04T02:36:22;65.47;;;27.17;;
22103;SDS011;11218;48.886;9.426;2023-03-04T02:38:53;70.28;;;27.17;;
22103;SDS011;11218;48.886;9.426;2023-03-04T02:41:24;65.72;;;26.17;;
22103;SDS011;11218;48.886;9.426;2023-03-04T02:43:55;65.10;;;25.92;;
22103;SDS011;11218;48.886;9.426;2023-03-04T02:46:23;60.80;;;25.35;;
22103;SDS011;11218;48.886;9.426;2023-03-04T02:48:51;60.17;;;24.65;;
22103;SDS011;11218;48.886;9.426;2023-03-04T02:51:20;64.72;;;25.85;;
22103;SDS011;11218;48.886;9.426;2023-03-04T02:53:48;64.50;;;26.10;;
22103;SDS011;11218;48.886;9.426;2023-03-04T02:56:16;61.83;;;26.48;;
22103;SDS011;11218;48.886;9.426;2023-03-04T02:58:46;63.53;;;25.23;;
22103;SDS011;11218;48.886;9.426;2023-03-04T03:01:14;69.13;;;26.20;;
22103;SDS011;11218;48.886;9.426;2023-03-04T03:03:43;64.07;;;26.38;;
22103;SDS011;11218;48.886;9.426;2023-03-04T03:06:10;63.55;;;25.40;;
22103;SDS011;11218;48.886;9.426;2023-03-04T03:08:38;60.63;;;25.60;;
22103;SDS011;11218;48.886;9.426;2023-03-04T03:11:06;65.20;;;25.15;;
22103;SDS011;11218;48.886;9.426;2023-03-04T03:13:34;62.15;;;24.83;;
22103;SDS011;11218;48.886;9.426;2023-03-04T03:16:05;68.55;;;25.83;;
22103;SDS011;11218;48.886;9.426;2023-03-04T03:18:33;61.55;;;24.50;;
22103;SDS011;11218;48.886;9.426;2023-03-04T03:21:01;66.65;;;25.27;;
22103;SDS011;11218;48.886;9.426;2023-03-04T03:23:29;60.45;;;25.17;;
22103;SDS011;11218;48.886;9.426;2023-03-04T03:25:57;67.80;;;25.93;;
22103;SDS011;11218;48.886;9.426;2023-03-04T03:28:26;69.43;;;27.83;;
22103;SDS011;11218;48.886;9.426;2023-03-04T03:30:54;65.97;;;27.13;;
22103;SDS011;11218;48.886;9.426;2023-03-04T03:33:23;61.33;;;24.67;;
22103;SDS011;11218;48.886;9.426;2023-03-04T03:35:52;74.50;;;26.17;;
22103;SDS011;11218;48.886;9.426;2023-03-04T03:38:20;65.77;;;25.40;;
22103;SDS011;11218;48.886;9.426;2023-03-04T03:40:48;65.43;;;26.37;;
22103;SDS011;11218;48.886;9.426;2023-03-04T03:43:16;67.33;;;27.23;;
22103;SDS011;11218;48.886;9.426;2023-03-04T03:45:44;66.13;;;26.23;;
22103;SDS011;11218;48.886;9.426;2023-03-04T03:48:12;64.40;;;24.63;;
22103;SDS011;11218;48.886;9.426;2023-03-04T03:50:42;54.83;;;24.67;;
22103;SDS011;11218;48.886;9.426;2023-03-04T03:53:11;58.87;;;23.90;;
22103;SDS011;11218;48.886;9.426;2023-03-04T03:55:39;68.93;;;25.93;;
22103;SDS011;11218;48.886;9.426;2023-03-04T03:58:07;64.40;;;25.67;;
22103;SDS011;11218;48.886;9.426;2023-03-04T04:00:35;63.33;;;25.70;;
22103;SDS011;11218;48.886;9.426;2023-03-04T04:03:03;58.70;;;23.43;;
22103;SDS011;11218;48.886;9.426;2023-03-04T04:05:31;55.50;;;21.80;;
22103;SDS011;11218;48.886;9.426;2023-03-04T04:08:00;56.17;;;21.30;;
22103;SDS011;11218;48.886;9.426;2023-03-04T04:10:28;61.53;;;24.07;;
22103;SDS011;11218;48.886;9.426;2023-03-04T04:12:56;66.90;;;25.33;;
22103;SDS011;11218;48.886;9.426;2023-03-04T04:15:24;60.87;;;23.43;;
22103;SDS011;11218;48.886;9.426;2023-03-04T04:17:52;57.70;;;23.37;;
22103;SDS011;11218;48.886;9.426;2023-03-04T04:20:22;62.03;;;22.47;;
22103;SDS011;11218;48.886;9.426;2023-03-04T04:22:51;61.77;;;22.70;;
22103;SDS011;11218;48.886;9.426;2023-03-04T04:25:21;60.10;;;22.20;;
22103;SDS011;11218;48.886;9.426;2023-03-04T04:27:49;56.83;;;22.20;;
22103;SDS011;11218;48.886;9.426;2023-03-04T04:30:17;57.40;;;21.63;;
22103;SDS011;11218;48.886;9.426;2023-03-04T04:32:45;61.93;;;22.63;;
22103;SDS011;11218;48.886;9.426;2023-03-04T04:35:13;57.23;;;22.53;;
22103;SDS011;11218;48.886;9.426;2023-03-04T04:37:41;51.47;;;20.00;;
22103;SDS011;11218;48.886;9.426;2023-03-04T04:40:10;48.63;;;21.00;;
22103;SDS011;11218;48.886;9.426;2023-03-04T04:42:40;49.87;;;20.90;;
22103;SDS011;11218;48.886;9.426;2023-03-04T04:45:08;56.57;;;21.27;;
22103;SDS011;11218;48.886;9.426;2023-03-04T04:47:37;53.10;;;21.30;;
22103;SDS011;11218;48.886;9.426;2023-03-04T04:50:05;59.70;;;22.93;;
22103;SDS011;11218;48.886;9.426;2023-03-04T04:52:34;54.07;;;20.27;;
22103;SDS011;11218;48.886;9.426;2023-03-04T04:55:02;56.33;;;21.43;;
22103;SDS011;11218;48.886;9.426;2023-03-04T04:57:32;54.10;;;20.60;;
22103;SDS011;11218;48.886;9.426;2023-03-04T05:00:02;49.80;;;20.90;;
22103;SDS011;11218;48.886;9.426;2023-03-04T05:02:31;56.97;;;21.77;;
22103;SDS011;11218;48.886;9.426;2023-03-04T05:05:01;54.90;;;21.65;;
22103;SDS011;11218;48.886;9.426;2023-03-04T05:07:30;51.10;;;20.90;;
22103;SDS011;11218;48.886;9.426;2023-03-04T05:09:58;49.17;;;19.30;;
22103;SDS011;11218;48.886;9.426;2023-03-04T05:12:26;55.90;;;20.67;;
22103;SDS011;11218;48.886;9.426;2023-03-04T05:14:54;52.13;;;20.60;;
22103;SDS011;11218;48.886;9.426;2023-03-04T05:17:24;47.43;;;18.90;;
22103;SDS011;11218;48.886;9.426;2023-03-04T05:19:52;63.97;;;21.87;;
22103;SDS011;11218;48.886;9.426;2023-03-04T05:22:20;54.63;;;19.83;;
22103;SDS011;11218;48.886;9.426;2023-03-04T05:24:48;52.37;;;21.33;;
22103;SDS011;11218;48.886;9.426;2023-03-04T05:27:16;53.10;;;20.20;;
22103;SDS011;11218;48.886;9.426;2023-03-04T05:29:45;52.70;;;20.67;;
22103;SDS011;11218;48.886;9.426;2023-03-04T05:32:13;60.10;;;22.13;;
22103;SDS011;11218;48.886;9.426;2023-03-04T05:34:42;47.93;;;18.27;;
22103;SDS011;11218;48.886;9.426;2023-03-04T05:37:10;59.07;;;22.53;;
22103;SDS011;11218;48.886;9.426;2023-03-04T05:39:38;53.53;;;20.80;;
22103;SDS011;11218;48.886;9.426;2023-03-04T05:42:06;66.23;;;22.77;;
22103;SDS011;11218;48.886;9.426;2023-03-04T05:44:34;54.27;;;21.47;;
22103;SDS011;11218;48.886;9.426;2023-03-04T05:47:03;59.27;;;21.10;;
22103;SDS011;11218;48.886;9.426;2023-03-04T05:49:32;52.27;;;20.33;;
22103;SDS011;11218;48.886;9.426;2023-03-04T05:52:02;51.87;;;20.30;;
22103;SDS011;11218;48.886;9.426;2023-03-04T05:54:30;72.03;;;24.57;;
22103;SDS011;11218;48.886;9.426;2023-03-04T05:56:58;62.13;;;21.77;;
22103;SDS011;11218;48.886;9.426;2023-03-04T05:59:26;53.53;;;20.27;;
22103;SDS011;11218;48.886;9.426;2023-03-04T06:01:54;53.40;;;20.37;;
22103;SDS011;11218;48.886;9.426;2023-03-04T06:04:22;51.83;;;18.77;;
22103;SDS011;11218;48.886;9.426;2023-03-04T06:06:50;46.50;;;18.67;;
22103;SDS011;11218;48.886;9.426;2023-03-04T06:09:19;58.47;;;21.30;;
22103;SDS011;11218;48.886;9.426;2023-03-04T06:11:48;56.57;;;21.23;;
22103;SDS011;11218;48.886;9.426;2023-03-04T06:14:16;60.73;;;21.33;;
22103;SDS011;11218;48.886;9.426;2023-03-04T06:16:44;59.63;;;21.90;;
22103;SDS011;11218;48.886;9.426;2023-03-04T06:19:12;55.23;;;20.50;;
22103;SDS011;11218;48.886;9.426;2023-03-04T06:21:40;61.80;;;21.57;;
22103;SDS011;11218;48.886;9.426;2023-03-04T06:24:08;53.43;;;21.07;;
22103;SDS011;11218;48.886;9.426;2023-03-04T06:26:37;48.37;;;19.20;;
22103;SDS011;11218;48.886;9.426;2023-03-04T06:29:06;53.67;;;20.27;;
22103;SDS011;11218;48.886;9.426;2023-03-04T06:31:34;61.60;;;21.50;;
22103;SDS011;11218;48.886;9.426;2023-03-04T06:34:02;56.47;;;20.87;;
22103;SDS011;11218;48.886;9.426;2023-03-04T06:36:30;60.20;;;21.87;;
22103;SDS011;11218;48.886;9.426;2023-03-04T06:38:58;58.77;;;21.90;;
22103;SDS011;11218;48.886;9.426;2023-03-04T06:41:28;63.63;;;22.13;;
22103;SDS011;11218;48.886;9.426;2023-03-04T06:43:57;52.87;;;20.17;;
22103;SDS011;11218;48.886;9.426;2023-03-04T06:46:25;54.90;;;19.53;;
22103;SDS011;11218;48.886;9.426;2023-03-04T06:48:55;55.63;;;20.20;;
22103;SDS011;11218;48.886;9.426;2023-03-04T06:51:23;51.87;;;19.67;;
22103;SDS011;11218;48.886;9.426;2023-03-04T06:53:52;54.57;;;20.33;;
22103;SDS011;11218;48.886;9.426;2023-03-04T06:56:20;65.97;;;21.40;;
22103;SDS011;11218;48.886;9.426;2023-03-04T06:58:48;113.67;;;34.23;;
22103;SDS011;11218;48.886;9.426;2023-03-04T07:01:19;223.70;;;56.07;;
22103;SDS011;11218;48.886;9.426;2023-03-04T07:03:49;269.23;;;66.47;;
22103;SDS011;11218;48.886;9.426;2023-03-04T07:06:18;189.17;;;50.90;;
22103;SDS011;11218;48.886;9.426;2023-03-04T07:08:48;155.82;;;45.47;;
22103;SDS011;11218;48.886;9.426;2023-03-04T07:11:17;134.67;;;38.90;;
22103;SDS011;11218;48.886;9.426;2023-03-04T07:13:45;99.97;;;32.50;;
22103;SDS011;11218;48.886;9.426;2023-03-04T07:16:14;98.90;;;31.93;;
22103;SDS011;11218;48.886;9.426;2023-03-04T07:18:47;95.37;;;32.27;;
22103;SDS011;11218;48.886;9.426;2023-03-04T07:21:16;83.10;;;28.88;;
22103;SDS011;11218;48.886;9.426;2023-03-04T07:23:45;96.70;;;32.47;;
22103;SDS011;11218;48.886;9.426;2023-03-04T07:26:13;96.30;;;30.80;;
22103;SDS011;11218;48.886;9.426;2023-03-04T07:28:41;94.40;;;29.47;;
22103;SDS011;11218;48.886;9.426;2023-03-04T07:31:10;76.40;;;27.97;;
22103;SDS011;11218;48.886;9.426;2023-03-04T07:33:40;75.00;;;27.50;;
22103;SDS011;11218;48.886;9.426;2023-03-04T07:36:09;77.80;;;26.97;;
22103;SDS011;11218;48.886;9.426;2023-03-04T07:38:41;75.63;;;25.67;;
22103;SDS011;11218;48.886;9.426;2023-03-04T07:41:10;70.27;;;25.87;;
22103;SDS011;11218;48.886;9.426;2023-03-04T07:43:38;72.20;;;26.47;;
22103;SDS011;11218;48.886;9.426;2023-03-04T07:46:07;71.00;;;25.70;;
22103;SDS011;11218;48.886;9.426;2023-03-04T07:48:35;73.90;;;26.13;;
22103;SDS011;11218;48.886;9.426;2023-03-04T07:51:05;80.00;;;27.70;;
22103;SDS011;11218;48.886;9.426;2023-03-04T07:53:36;74.20;;;25.33;;
22103;SDS011;11218;48.886;9.426;2023-03-04T07:56:05;70.23;;;22.60;;
22103;SDS011;11218;48.886;9.426;2023-03-04T07:58:35;67.93;;;22.87;;
22103;SDS011;11218;48.886;9.426;2023-03-04T08:01:07;61.70;;;20.57;;
22103;SDS011;11218;48.886;9.426;2023-03-04T08:03:36;69.85;;;21.80;;
22103;SDS011;11218;48.886;9.426;2023-03-04T08:06:05;64.20;;;21.77;;
22103;SDS011;11218;48.886;9.426;2023-03-04T08:08:34;67.47;;;22.60;;
22103;SDS011;11218;48.886;9.426;2023-03-04T08:11:04;62.77;;;22.07;;
22103;SDS011;11218;48.886;9.426;2023-03-04T08:13:33;61.03;;;22.38;;
22103;SDS011;11218;48.886;9.426;2023-03-04T08:16:01;70.17;;;21.77;;
22103;SDS011;11218;48.886;9.426;2023-03-04T08:18:30;54.43;;;20.10;;
22103;SDS011;11218;48.886;9.426;2023-03-04T08:20:58;62.00;;;20.75;;
22103;SDS011;11218;48.886;9.426;2023-03-04T08:23:27;67.70;;;22.85;;
22103;SDS011;11218;48.886;9.426;2023-03-04T08:25:56;63.63;;;23.97;;
22103;SDS011;11218;48.886;9.426;2023-03-04T08:28:24;77.57;;;25.53;;
22103;SDS011;11218;48.886;9.426;2023-03-04T08:30:52;71.25;;;23.25;;
22103;SDS011;11218;48.886;9.426;2023-03-04T08:33:22;74.03;;;24.33;;
22103;SDS011;11218;48.886;9.426;2023-03-04T08:35:53;72.37;;;23.67;;
22103;SDS011;11218;48.886;9.426;2023-03-04T08:38:22;73.13;;;23.88;;
22103;SDS011;11218;48.886;9.426;2023-03-04T08:40:53;63.35;;;22.00;;
22103;SDS011;11218;48.886;9.426;2023-03-04T08:43:23;66.65;;;22.63;;
22103;SDS011;11218;48.886;9.426;2023-03-04T08:45:52;61.97;;;20.92;;
22103;SDS011;11218;48.886;9.426;2023-03-04T08:48:21;62.60;;;22.42;;
22103;SDS011;11218;48.886;9.426;2023-03-04T08:50:51;69.68;;;23.20;;
22103;SDS011;11218;48.886;9.426;2023-03-04T08:53:20;66.07;;;23.92;;
22103;SDS011;11218;48.886;9.426;2023-03-04T08:55:49;73.25;;;24.33;;
22103;SDS011;11218;48.886;9.426;2023-03-04T08:58:19;74.38;;;24.90;;
22103;SDS011;11218;48.886;9.426;2023-03-04T09:00:49;64.45;;;23.05;;
22103;SDS011;11218;48.886;9.426;2023-03-04T09:03:18;67.75;;;24.73;;
22103;SDS011;11218;48.886;9.426;2023-03-04T09:05:46;60.65;;;22.35;;
22103;SDS011;11218;48.886;9.426;2023-03-04T09:08:15;79.28;;;24.73;;
22103;SDS011;11218;48.886;9.426;2023-03-04T09:10:54;63.40;;;22.25;;
22103;SDS011;11218;48.886;9.426;2023-03-04T09:13:22;56.40;;;21.52;;
22103;SDS011;11218;48.886;9.426;2023-03-04T09:15:54;67.80;;;22.80;;
22103;SDS011;11218;48.886;9.426;2023-03-04T09:18:22;68.55;;;22.77;;
22103;SDS011;11218;48.886;9.426;2023-03-04T09:20:51;69.90;;;23.17;;
22103;SDS011;11218;48.886;9.426;2023-03-04T09:23:20;66.63;;;22.77;;
22103;SDS011;11218;48.886;9.426;2023-03-04T09:25:48;58.17;;;20.80;;
22103;SDS011;11218;48.886;9.426;2023-03-04T09:28:17;58.60;;;20.52;;
22103;SDS011;11218;48.886;9.426;2023-03-04T09:30:46;65.70;;;20.65;;
22103;SDS011;11218;48.886;9.426;2023-03-04T09:33:16;61.95;;;21.45;;
22103;SDS011;11218;48.886;9.426;2023-03-04T09:35:44;68.22;;;21.60;;
22103;SDS011;11218;48.886;9.426;2023-03-04T09:38:14;61.97;;;22.70;;
22103;SDS011;11218;48.886;9.426;2023-03-04T09:40:43;59.92;;;22.20;;
22103;SDS011;11218;48.886;9.426;2023-03-04T09:43:16;62.15;;;22.02;;
22103;SDS011;11218;48.886;9.426;2023-03-04T09:45:48;71.18;;;24.23;;
22103;SDS011;11218;48.886;9.426;2023-03-04T09:48:22;66.80;;;22.88;;
22103;SDS011;11218;48.886;9.426;2023-03-04T09:50:58;71.22;;;24.48;;
22103;SDS011;11218;48.886;9.426;2023-03-04T09:53:40;68.75;;;22.75;;
22103;SDS011;11218;48.886;9.426;2023-03-04T09:56:16;64.45;;;23.73;;
22103;SDS011;11218;48.886;9.426;2023-03-04T09:58:46;68.22;;;24.17;;
22103;SDS011;11218;48.886;9.426;2023-03-04T10:01:21;62.97;;;22.67;;
22103;SDS011;11218;48.886;9.426;2023-03-04T10:03:56;63.13;;;22.00;;
22103;SDS011;11218;48.886;9.426;2023-03-04T10:06:27;60.15;;;21.92;;
22103;SDS011;11218;48.886;9.426;2023-03-04T10:08:57;67.10;;;22.40;;
22103;SDS011;11218;48.886;9.426;2023-03-04T10:11:31;67.63;;;23.80;;
22103;SDS011;11218;48.886;9.426;2023-03-04T10:14:09;68.93;;;24.45;;
22103;SDS011;11218;48.886;9.426;2023-03-04T10:16:48;61.90;;;22.17;;
22103;SDS011;11218;48.886;9.426;2023-03-04T10:19:23;66.10;;;23.27;;
22103;SDS011;11218;48.886;9.426;2023-03-04T10:21:57;62.78;;;22.77;;
22103;SDS011;11218;48.886;9.426;2023-03-04T10:24:26;67.40;;;22.75;;
22103;SDS011;11218;48.886;9.426;2023-03-04T10:26:57;59.50;;;20.88;;
22103;SDS011;11218;48.886;9.426;2023-03-04T10:29:30;71.45;;;22.02;;
22103;SDS011;11218;48.886;9.426;2023-03-04T10:31:59;67.25;;;23.55;;
22103;SDS011;11218;48.886;9.426;2023-03-04T10:34:28;61.40;;;22.08;;
22103;SDS011;11218;48.886;9.426;2023-03-04T10:36:57;63.90;;;21.60;;
22103;SDS011;11218;48.886;9.426;2023-03-04T10:39:28;62.78;;;22.55;;
22103;SDS011;11218;48.886;9.426;2023-03-04T10:41:58;70.47;;;23.60;;
22103;SDS011;11218;48.886;9.426;2023-03-04T10:44:29;62.85;;;22.20;;
22103;SDS011;11218;48.886;9.426;2023-03-04T10:46:58;68.57;;;24.02;;
22103;SDS011;11218;48.886;9.426;2023-03-04T10:49:27;69.60;;;24.20;;
22103;SDS011;11218;48.886;9.426;2023-03-04T10:52:00;68.60;;;24.63;;
22103;SDS011;11218;48.886;9.426;2023-03-04T10:54:30;79.47;;;24.52;;
22103;SDS011;11218;48.886;9.426;2023-03-04T10:57:11;65.57;;;23.52;;
22103;SDS011;11218;48.886;9.426;2023-03-04T10:59:43;57.00;;;22.30;;
22103;SDS011;11218;48.886;9.426;2023-03-04T11:02:20;58.90;;;23.48;;
22103;SDS011;11218;48.886;9.426;2023-03-04T11:04:55;70.28;;;24.45;;
22103;SDS011;11218;48.886;9.426;2023-03-04T11:07:31;63.35;;;23.98;;
22103;SDS011;11218;48.886;9.426;2023-03-04T11:10:21;75.07;;;26.02;;
22103;SDS011;11218;48.886;9.426;2023-03-04T11:12:53;71.95;;;25.02;;
22103;SDS011;11218;48.886;9.426;2023-03-04T11:15:27;71.93;;;24.95;;
22103;SDS011;11218;48.886;9.426;2023-03-04T11:17:58;59.53;;;23.55;;
22103;SDS011;11218;48.886;9.426;2023-03-04T11:20:31;68.45;;;25.50;;
22103;SDS011;11218;48.886;9.426;2023-03-04T11:23:02;68.07;;;24.95;;
22103;SDS011;11218;48.886;9.426;2023-03-04T11:25:32;73.78;;;26.63;;
22103;SDS011;11218;48.886;9.426;2023-03-04T11:28:03;65.97;;;25.05;;
22103;SDS011;11218;48.886;9.426;2023-03-04T11:30:38;76.82;;;25.63;;
22103;SDS011;11218;48.886;9.426;2023-03-04T11:33:21;69.63;;;26.23;;
22103;SDS011;11218;48.886;9.426;2023-03-04T11:36:01;88.88;;;27.48;;
22103;SDS011;11218;48.886;9.426;2023-03-04T11:38:43;76.15;;;26.75;;
22103;SDS011;11218;48.886;9.426;2023-03-04T11:41:16;83.57;;;27.48;;
22103;SDS011;11218;48.886;9.426;2023-03-04T11:43:48;67.18;;;24.90;;
22103;SDS011;11218;48.886;9.426;2023-03-04T11:46:27;75.40;;;26.50;;
22103;SDS011;11218;48.886;9.426;2023-03-04T11:49:28;77.93;;;27.52;;
22103;SDS011;11218;48.886;9.426;2023-03-04T11:52:15;71.10;;;24.90;;
22103;SDS011;11218;48.886;9.426;2023-03-04T11:54:53;73.68;;;26.17;;
22103;SDS011;11218;48.886;9.426;2023-03-04T11:57:33;68.07;;;25.92;;
22103;SDS011;11218;48.886;9.426;2023-03-04T12:00:19;72.35;;;26.30;;
22103;SDS011;11218;48.886;9.426;2023-03-04T12:03:07;81.57;;;26.95;;
22103;SDS011;11218;48.886;9.426;2023-03-04T12:05:54;73.03;;;25.70;;
22103;SDS011;11218;48.886;9.426;2023-03-04T12:08:34;74.88;;;27.85;;
22103;SDS011;11218;48.886;9.426;2023-03-04T12:11:11;77.75;;;27.08;;
22103;SDS011;11218;48.886;9.426;2023-03-04T12:14:08;77.07;;;29.23;;
22103;SDS011;11218;48.886;9.426;2023-03-04T12:16:53;75.65;;;26.77;;
22103;SDS011;11218;48.886;9.426;2023-03-04T12:19:32;78.47;;;27.65;;
22103;SDS011;11218;48.886;9.426;2023-03-04T12:22:14;73.97;;;27.33;;
22103;SDS011;11218;48.886;9.426;2023-03-04T12:25:04;68.57;;;26.00;;
22103;SDS011;11218;48.886;9.426;2023-03-04T12:27:53;73.25;;;25.95;;
22103;SDS011;11218;48.886;9.426;2023-03-04T12:30:33;71.30;;;27.05;;
22103;SDS011;11218;48.886;9.426;2023-03-04T12:33:11;78.07;;;28.52;;
22103;SDS011;11218;48.886;9.426;2023-03-04T12:35:51;82.85;;;29.60;;
22103;SDS011;11218;48.886;9.426;2023-03-04T12:38:26;68.78;;;27.13;;
22103;SDS011;11218;48.886;9.426;2023-03-04T12:41:05;68.53;;;26.23;;
22103;SDS011;11218;48.886;9.426;2023-03-04T12:43:50;81.38;;;28.75;;
22103;SDS011;11218;48.886;9.426;2023-03-04T12:46:26;77.40;;;27.92;;
22103;SDS011;11218;48.886;9.426;2023-03-04T12:49:10;78.82;;;29.00;;
22103;SDS011;11218;48.886;9.426;2023-03-04T12:52:10;80.45;;;29.75;;
22103;SDS011;11218;48.886;9.426;2023-03-04T12:54:46;77.07;;;28.13;;
22103;SDS011;11218;48.886;9.426;2023-03-04T12:57:19;77.70;;;29.13;;
22103;SDS011;11218;48.886;9.426;2023-03-04T12:59:53;83.50;;;31.13;;
22103;SDS011;11218;48.886;9.426;2023-03-04T13:02:28;90.43;;;30.80;;
22103;SDS011;11218;48.886;9.426;2023-03-04T13:08:09;86.78;;;29.92;;
22103;SDS011;11218;48.886;9.426;2023-03-04T13:10:45;76.25;;;29.60;;
22103;SDS011;11218;48.886;9.426;2023-03-04T13:13:34;85.78;;;31.00;;
22103;SDS011;11218;48.886;9.426;2023-03-04T13:16:04;89.82;;;32.33;;
22103;SDS011;11218;48.886;9.426;2023-03-04T13:18:34;81.93;;;30.48;;
22103;SDS011;11218;48.886;9.426;2023-03-04T13:21:06;86.60;;;32.13;;
22103;SDS011;11218;48.886;9.426;2023-03-04T13:23:44;87.78;;;31.50;;
22103;SDS011;11218;48.886;9.426;2023-03-04T13:26:16;87.95;;;31.75;;
22103;SDS011;11218;48.886;9.426;2023-03-04T13:28:52;83.60;;;30.98;;
22103;SDS011;11218;48.886;9.426;2023-03-04T13:34:41;93.63;;;34.00;;
22103;SDS011;11218;48.886;9.426;2023-03-04T13:37:28;93.72;;;33.72;;
22103;SDS011;11218;48.886;9.426;2023-03-04T13:43:17;95.80;;;32.80;;
22103;SDS011;11218;48.886;9.426;2023-03-04T13:45:53;106.82;;;36.05;;
22103;SDS011;11218;48.886;9.426;2023-03-04T13:48:23;104.45;;;34.88;;
22103;SDS011;11218;48.886;9.426;2023-03-04T13:50:57;106.88;;;32.97;;
22103;SDS011;11218;48.886;9.426;2023-03-04T13:53:28;117.75;;;36.60;;
22103;SDS011;11218;48.886;9.426;2023-03-04T13:56:17;142.20;;;44.80;;
22103;SDS011;11218;48.886;9.426;2023-03-04T13:59:07;112.43;;;38.28;;
22103;SDS011;11218;48.886;9.426;2023-03-04T14:01:56;122.72;;;40.83;;
22103;SDS011;11218;48.886;9.426;2023-03-04T14:04:27;94.63;;;35.30;;
22103;SDS011;11218;48.886;9.426;2023-03-04T14:06:58;103.25;;;34.67;;
22103;SDS011;11218;48.886;9.426;2023-03-04T14:09:28;85.88;;;30.35;;
22103;SDS011;11218;48.886;9.426;2023-03-04T14:11:57;89.88;;;30.30;;
22103;SDS011;11218;48.886;9.426;2023-03-04T14:14:28;91.78;;;32.78;;
22103;SDS011;11218;48.886;9.426;2023-03-04T14:17:04;89.50;;;31.52;;
22103;SDS011;11218;48.886;9.426;2023-03-04T14:19:37;84.75;;;29.92;;
22103;SDS011;11218;48.886;9.426;2023-03-04T14:22:18;89.93;;;30.75;;
22103;SDS011;11218;48.886;9.426;2023-03-04T14:24:58;89.28;;;31.15;;
22103;SDS011;11218;48.886;9.426;2023-03-04T14:27:27;79.82;;;29.88;;
22103;SDS011;11218;48.886;9.426;2023-03-04T14:29:59;96.47;;;31.88;;
22103;SDS011;11218;48.886;9.426;2023-03-04T14:32:29;98.38;;;31.38;;
22103;SDS011;11218;48.886;9.426;2023-03-04T14:35:00;88.32;;;31.20;;
22103;SDS011;11218;48.886;9.426;2023-03-04T14:37:31;82.10;;;29.13;;
22103;SDS011;11218;48.886;9.426;2023-03-04T14:40:06;88.95;;;30.75;;
22103;SDS011;11218;48.886;9.426;2023-03-04T14:42:38;96.05;;;33.35;;
22103;SDS011;11218;48.886;9.426;2023-03-04T14:45:12;87.68;;;33.28;;
22103;SDS011;11218;48.886;9.426;2023-03-04T14:47:44;71.43;;;28.33;;
22103;SDS011;11218;48.886;9.426;2023-03-04T14:50:16;70.45;;;27.83;;
22103;SDS011;11218;48.886;9.426;2023-03-04T14:52:46;77.38;;;28.50;;
22103;SDS011;11218;48.886;9.426;2023-03-04T14:55:21;77.05;;;29.33;;